Flight Track Log - Related Links

Times and Time Zones

All times are in EDT time to prevent confusion due to time zone crossing. See the EJA930 flight status page for this flight to view local times or setup timezone preferences in your user account.

Time Position Orientation Groundspeed Altitude Reporting Facility
EDT Latitude Longitude Course Direction KTS MPH feet Rate Location/Type
Fri 07:51:19 PM 41.8008 -87.8025 195° South 199 229 3,100  Level Chicago Center
Fri 07:52:21 PM 41.7331 -87.8261 195° South 274 315 5,900 1,694 Climbing Chicago Center
Fri 07:53:23 PM 41.6589 -87.8567 197° South 287 330 6,600 1,512 Climbing Chicago Center
Fri 07:54:24 PM 41.5914 -87.9142 213° Southwest 289 333 9,000 2,585 Climbing Chicago Center
Fri 07:55:26 PM 41.5203 -87.9747 213° Southwest 301 346 11,900 1,645 Climbing Chicago Center
Fri 07:56:28 PM 41.4394 -88.0458 213° Southwest 312 359 12,400 1,161 Climbing Chicago Center
Fri 07:57:30 PM 41.3578 -88.1183 214° Southwest 349 402 14,300 1,935 Climbing Chicago Center
Fri 07:58:32 PM 41.2714 -88.1925 213° Southwest 369 425 16,400 2,371 Climbing Chicago Center
Fri 07:59:34 PM 41.1572 -88.2694 207° Southwest 384 442 19,200 2,371 Climbing Chicago Center
Fri 08:00:36 PM 41.0592 -88.3372 208° Southwest 397 457 21,300 1,902 Climbing Chicago Center
Fri 08:01:37 PM 40.9558 -88.4050 206° Southwest 411 473 23,100 1,659 Climbing Chicago Center
Fri 08:02:39 PM 40.8481 -88.4783 207° Southwest 433 498 24,700 1,548 Climbing Chicago Center
Fri 08:03:41 PM 40.7328 -88.5556 207° Southwest 460 529 26,300 1,694 Climbing Chicago Center
Fri 08:04:43 PM 40.5914 -88.6519 207° Southwest 478 550 28,200 1,645 Climbing Chicago Center
Fri 08:05:45 PM 40.4706 -88.7319 207° Southwest 486 559 29,700 1,161 Climbing Chicago Center
Fri 08:06:47 PM 40.3589 -88.8050 207° Southwest 496 571 30,600 871 Climbing Chicago Center
Fri 08:07:49 PM 40.2278 -88.8914 207° Southwest 517 595 31,500 677 Climbing Chicago Center
Fri 08:08:51 PM 40.0672 -88.9967 207° Southwest 536 617 32,000 242 Climbing Chicago Center
Fri 08:09:53 PM 39.9325 -89.0836 206° Southwest 538 619 32,000  Level Chicago Center
Fri 08:10:55 PM 39.8036 -89.1683 207° Southwest 522 601 32,000  Level Chicago Center
Fri 08:11:56 PM 39.6733 -89.2525 206° Southwest 521 600 32,000  Level Chicago Center
Fri 08:13:25 PM 39.4811 -89.3786 207° Southwest 520 598 32,000 40 Level Kansas City Center
Fri 08:14:27 PM 39.3517 -89.4606 206° Southwest 519 597 32,100 484 Climbing Kansas City Center
Fri 08:15:29 PM 39.2214 -89.5433 206° Southwest 520 598 33,000 1,016 Climbing Kansas City Center
Fri 08:16:31 PM 39.0728 -89.6392 207° Southwest 523 602 34,200 1,073 Climbing Kansas City Center
Fri 08:17:32 PM 38.9306 -89.7294 206° Southwest 530 610 35,200 1,171 Climbing Kansas City Center
Fri 08:18:34 PM 38.7994 -89.8106 206° Southwest 528 608 36,600 1,258 Climbing Kansas City Center
Fri 08:19:36 PM 38.6717 -89.8906 206° Southwest 513 590 37,800 1,065 Climbing Kansas City Center
Fri 08:20:38 PM 38.5425 -89.9714 206° Southwest 511 588 38,800 976 Climbing Kansas City Center
Fri 08:21:39 PM 38.4111 -90.0533 206° Southwest 517 595 39,800 585 Climbing Kansas City Center
Fri 08:22:41 PM 38.2819 -90.1333 206° Southwest 514 592 40,000 97 Climbing Kansas City Center
Fri 08:23:43 PM 38.1558 -90.2106 206° Southwest 505 581 40,000  Level Kansas City Center
Fri 08:24:45 PM 38.0353 -90.2864 206° Southwest 485 558 40,000  Level Kansas City Center
Fri 08:25:46 PM 37.9147 -90.3586 205° Southwest 478 550 40,000  Level Kansas City Center
Fri 08:26:48 PM 37.7928 -90.4331 206° Southwest 485 558 40,000  Level Kansas City Center
Fri 08:27:50 PM 37.6444 -90.5242 206° Southwest 492 566 40,000  Level Kansas City Center
Fri 08:28:51 PM 37.5239 -90.5992 206° Southwest 485 558 40,000  Level Kansas City Center
Fri 08:29:53 PM 37.4042 -90.6731 206° Southwest 482 555 40,000  Level Kansas City Center
Fri 08:30:55 PM 37.2719 -90.7508 205° Southwest 478 550 40,000  Level Kansas City Center
Fri 08:31:57 PM 37.1678 -90.8139 206° Southwest 473 544 40,000  Level Kansas City Center
Fri 08:32:58 PM 37.0383 -90.8903 205° Southwest 467 537 40,000  Level Kansas City Center
Fri 08:34:00 PM 36.9206 -90.9600 205° Southwest 467 537 40,000  Level Kansas City Center
Fri 08:34:38 PM 36.8447 -91.0103 208° Southwest 474 545 40,000  Level Memphis Center
Fri 08:35:38 PM 36.7278 -91.0792 205° Southwest 468 539 40,000  Level Memphis Center
Fri 08:36:38 PM 36.6000 -91.1531 205° Southwest 463 533 40,000 -300 Level Memphis Center
Fri 08:37:38 PM 36.5061 -91.2064 205° Southwest 463 533 39,400 -1,300 Descending Memphis Center
Fri 08:38:38 PM 36.3742 -91.2847 206° Southwest 463 533 37,400 -2,200 Descending Memphis Center
Fri 08:39:38 PM 36.2547 -91.3531 205° Southwest 468 539 35,000 -2,400 Descending Memphis Center
Fri 08:40:38 PM 36.1333 -91.4236 205° Southwest 468 539 32,600 -2,400 Descending Memphis Center
Fri 08:41:38 PM 36.0097 -91.4886 203° Southwest 468 539 30,200 -2,650 Descending Memphis Center
Fri 08:42:38 PM 35.8861 -91.5536 203° Southwest 463 533 27,300 -2,900 Descending Memphis Center
Fri 08:43:38 PM 35.7686 -91.6133 202° Southwest 457 526 24,400 -2,850 Descending Memphis Center
Fri 08:44:38 PM 35.6617 -91.6678 202° Southwest 450 518 21,600 -7,200 Descending Memphis Center
Fri 08:45:38 PM 35.5528 -91.7197 201° Southwest 439 505 10,000 -2,750 Descending Memphis Center
Fri 08:46:38 PM 35.4500 -91.7689 201° Southwest 413 475 16,100 2,816 Climbing Memphis Center
Fri 08:47:16 PM 35.3892 -91.8011 203° Southwest 381 438 14,600 -2,424 Descending Memphis Center
Fri 08:48:17 PM 35.2883 -91.8503 202° Southwest 362 417 12,100 -2,296 Descending Memphis Center
Fri 08:49:11 PM 35.2108 -91.8869 201° Southwest 342 394 10,200 -1,686 Descending Memphis Center
Fri 08:50:18 PM 35.1225 -91.9361 204° Southwest 299 344 8,700 -1,567 Descending Memphis Center
Fri 08:51:25 PM 35.0428 -91.9881 208° Southwest 286 329 6,700 -1,774 Descending Memphis Center
Fri 08:52:13 PM 34.9919 -92.0350 217° Southwest 272 313 5,300 -756 Descending Memphis Center
Fri 08:53:32 PM 34.9158 -92.1122 220° Southwest 277 319 5,100 -86 Descending Memphis Center
Fri 08:54:33 PM 34.8647 -92.1819 228° Southwest 271 312 5,100  Level Memphis Center
Fri 08:55:10 PM 34.8392 -92.2244 234° Southwest 272 313 5,100 -117 Level Memphis Center
Fri 08:56:16 PM 34.7861 -92.2839 223° Southwest 216 249 4,900 -709 Descending Memphis Center
Fri 08:57:17 PM 34.7336 -92.3006 195° South 168 193 3,600 -1,293 Descending Memphis Center
Fri 08:58:12 PM 34.6939 -92.3047 185° South 150 173 2,400 -1,041 Descending Memphis Center
Fri 08:59:18 PM 34.6819 -92.2589 108° East 142 163 1,500 -850 Descending Memphis Center
Fri 09:00:19 PM 34.7156 -92.2444 19° North 119 137 600 -885 Descending Memphis Center

Login

Don't have an account? Register now (free) for customized features, flight alerts, and more!